Time;durP1;ratioP1;P1;durP2;ratioP2;P2;SDS_P1;SDS_P2;PMS_P1;PMS_P2;Temp;Humidity;BMP_temperature;BMP_pressure;BME280_temperature;BME280_humidity;BME280_pressure;Samples;Min_cycle;Max_cycle;Signal;HPM_P1;HPM_P2
2021/11/10 00:00:16;;;;;;;11.68;6.53;;;-1.40;99.90;;;;;;5057866;28;20481;-91
2021/11/10 00:02:43;;;;;;;11.95;6.97;;;-1.40;99.90;;;;;;5058196;28;20050;-91
2021/11/10 00:05:11;;;;;;;16.33;8.43;;;-1.40;99.90;;;;;;5057509;28;20052;-91
2021/11/10 00:07:38;;;;;;;13.20;8.25;;;-1.50;99.90;;;;;;5075214;28;20465;-90
2021/11/10 00:10:06;;;;;;;15.43;8.88;;;-1.50;99.90;;;;;;5057634;28;20489;-90
2021/11/10 00:12:32;;;;;;;16.55;9.27;;;-1.60;99.90;;;;;;5057395;28;20045;-91
2021/11/10 00:14:59;;;;;;;16.52;8.88;;;-1.40;99.90;;;;;;5057323;28;20054;-91
2021/11/10 00:17:26;;;;;;;18.05;8.65;;;-1.50;99.90;;;;;;5057462;28;20503;-90
2021/11/10 00:19:53;;;;;;;11.82;8.00;;;-1.50;99.90;;;;;;5057651;28;20499;-90
2021/11/10 00:22:19;;;;;;;14.13;8.30;;;-1.50;99.90;;;;;;5074615;28;20111;-91
2021/11/10 00:24:46;;;;;;;14.30;7.45;;;-1.60;99.90;;;;;;5057419;28;20136;-91
2021/11/10 00:27:13;;;;;;;15.52;7.45;;;-1.60;99.90;;;;;;5057263;28;20128;-91
2021/11/10 00:29:40;;;;;;;19.98;8.57;;;-1.60;99.90;;;;;;5056868;28;20058;-91
2021/11/10 00:32:07;;;;;;;21.10;7.95;;;-1.60;99.90;;;;;;5057289;28;20044;-91
2021/11/10 00:34:34;;;;;;;14.43;7.65;;;-1.70;99.90;;;;;;5057131;28;20067;-91
2021/11/10 00:37:01;;;;;;;14.00;6.88;;;-1.70;99.90;;;;;;5057425;28;20044;-91
2021/11/10 00:39:28;;;;;;;16.70;8.55;;;-1.70;99.90;;;;;;5057494;28;20052;-91
2021/11/10 00:41:55;;;;;;;12.93;8.00;;;-1.70;99.90;;;;;;5057277;28;20542;-91
2021/11/10 00:44:21;;;;;;;16.08;8.75;;;-1.60;99.90;;;;;;5057129;28;20048;-91
2021/11/10 00:46:48;;;;;;;17.90;8.80;;;-1.60;99.90;;;;;;5074175;28;20511;-91
2021/11/10 00:49:15;;;;;;;16.20;9.02;;;-1.60;99.90;;;;;;5057255;28;20054;-91
2021/11/10 00:51:42;;;;;;;22.33;8.40;;;-1.60;99.90;;;;;;5057062;28;20497;-91
2021/11/10 00:54:09;;;;;;;18.58;9.02;;;-1.60;99.90;;;;;;5056998;28;20059;-91
2021/11/10 00:56:36;;;;;;;14.27;7.80;;;-1.60;99.90;;;;;;5057024;28;20131;-91
2021/11/10 00:59:03;;;;;;;14.65;7.68;;;-1.70;99.90;;;;;;5056906;28;20053;-91
2021/11/10 01:01:29;;;;;;;17.80;8.05;;;-1.80;99.90;;;;;;5056706;28;20056;-91
2021/11/10 01:03:56;;;;;;;14.90;7.32;;;-1.80;99.90;;;;;;5056690;28;20113;-91
2021/11/10 01:06:23;;;;;;;10.75;6.70;;;-1.90;99.90;;;;;;5056711;28;20135;-91
2021/11/10 01:08:52;;;;;;;11.85;7.15;;;-1.80;99.90;;;;;;5056496;28;20044;-91
2021/11/10 01:11:19;;;;;;;11.07;6.70;;;-1.90;99.90;;;;;;5056843;28;20055;-91
2021/11/10 01:13:46;;;;;;;13.45;6.80;;;-1.90;99.90;;;;;;5056659;28;20052;-92
2021/11/10 01:16:13;;;;;;;14.43;7.03;;;-1.90;99.90;;;;;;5056301;28;20044;-91
2021/11/10 01:18:40;;;;;;;12.25;7.10;;;-1.90;99.90;;;;;;5056557;28;20509;-90
2021/11/10 01:21:07;;;;;;;10.07;6.80;;;-1.90;99.90;;;;;;5056288;28;20131;-91
2021/11/10 01:23:33;;;;;;;10.57;6.65;;;-1.90;99.90;;;;;;5056576;28;20052;-91
2021/11/10 01:26:00;;;;;;;15.20;7.05;;;-1.80;99.90;;;;;;5056365;28;20047;-91
2021/11/10 01:28:27;;;;;;;11.48;7.30;;;-1.90;99.90;;;;;;5056075;28;20071;-91
2021/11/10 01:30:54;;;;;;;15.57;6.97;;;-1.90;99.90;;;;;;5056434;28;20052;-90
2021/11/10 01:33:20;;;;;;;11.07;6.85;;;-2.00;99.90;;;;;;5056598;28;20052;-91
2021/11/10 01:35:47;;;;;;;10.45;7.00;;;-2.10;99.90;;;;;;5056190;28;20051;-91
2021/11/10 01:38:14;;;;;;;10.18;6.60;;;-2.10;99.90;;;;;;5056261;28;20075;-92
2021/11/10 01:40:40;;;;;;;12.68;8.20;;;-2.20;99.90;;;;;;5056154;28;20052;-91
2021/11/10 01:43:14;;;;;;;13.00;7.63;;;-2.30;99.90;;;;;;5056071;28;20044;-91
2021/11/10 01:45:41;;;;;;;13.10;7.35;;;-2.20;99.90;;;;;;5056098;28;20059;-91
2021/11/10 01:48:08;;;;;;;9.98;6.85;;;-2.30;99.90;;;;;;5056152;28;20048;-91
2021/11/10 01:50:35;;;;;;;15.45;7.35;;;-2.20;99.90;;;;;;5056138;28;20497;-91
2021/11/10 01:53:02;;;;;;;14.20;7.20;;;-2.20;99.90;;;;;;5055840;28;20446;-92
2021/11/10 01:55:29;;;;;;;12.60;7.28;;;-2.30;99.90;;;;;;5056129;28;20086;-92
2021/11/10 01:57:56;;;;;;;12.45;6.53;;;-2.30;99.90;;;;;;5055756;28;20044;-91
2021/11/10 02:00:29;;;;;;;13.05;6.82;;;-2.30;99.90;;;;;;5055720;28;20408;-91
2021/11/10 02:02:57;;;;;;;10.73;6.30;;;-2.40;99.90;;;;;;5056113;28;20485;-92
2021/11/10 02:05:24;;;;;;;20.25;7.28;;;-2.40;99.90;;;;;;5055842;28;20556;-92
2021/11/10 02:07:51;;;;;;;14.52;7.82;;;-2.40;99.90;;;;;;5055827;28;20123;-91
2021/11/10 02:10:20;;;;;;;15.55;7.70;;;-2.50;99.90;;;;;;5055906;28;20163;-92
2021/11/10 02:12:48;;;;;;;13.52;8.07;;;-2.40;99.90;;;;;;5055902;28;20048;-92
2021/11/10 02:15:16;;;;;;;12.75;8.13;;;-2.40;99.90;;;;;;5055805;28;20059;-92
2021/11/10 02:17:46;;;;;;;15.32;8.13;;;-2.30;99.90;;;;;;5055931;28;20048;-92
2021/11/10 02:20:13;;;;;;;19.13;8.40;;;-2.30;99.90;;;;;;5056083;28;20549;-91
2021/11/10 02:22:40;;;;;;;10.50;7.22;;;-2.30;99.90;;;;;;5055714;28;20135;-92
2021/11/10 02:25:10;;;;;;;15.02;7.85;;;-2.30;99.90;;;;;;5055802;28;20132;-92
2021/11/10 02:27:37;;;;;;;12.85;6.90;;;-2.40;99.90;;;;;;5056104;28;20538;-92
2021/11/10 02:30:09;;;;;;;12.77;7.82;;;-2.40;99.90;;;;;;5055583;28;20044;-91
2021/11/10 02:32:36;;;;;;;13.23;6.88;;;-2.40;99.90;;;;;;5056140;28;20487;-92
2021/11/10 02:35:05;;;;;;;10.25;6.35;;;-2.40;99.90;;;;;;5055792;28;20056;-92
2021/11/10 02:37:32;;;;;;;18.23;6.80;;;-2.40;99.90;;;;;;5055431;28;20055;-92
2021/11/10 02:39:59;;;;;;;9.50;6.80;;;-2.40;99.90;;;;;;5055375;28;20066;-92
2021/11/10 02:42:25;;;;;;;12.98;6.93;;;-2.30;99.90;;;;;;5055377;28;20055;-92
2021/11/10 02:44:53;;;;;;;10.00;7.07;;;-2.40;99.90;;;;;;5055257;28;20127;-92
2021/11/10 02:47:21;;;;;;;9.65;6.78;;;-2.40;99.90;;;;;;5055412;28;20044;-92
2021/11/10 02:49:47;;;;;;;10.02;7.20;;;-2.30;99.90;;;;;;5055205;28;20056;-93
2021/11/10 02:52:18;;;;;;;14.73;7.80;;;-2.30;99.90;;;;;;5055617;28;20549;-92
2021/11/10 02:54:50;;;;;;;21.08;9.07;;;-2.30;99.90;;;;;;5055560;28;20546;-92
2021/11/10 02:57:17;;;;;;;14.43;8.07;;;-2.30;99.90;;;;;;5055467;28;20051;-92
2021/11/10 02:59:45;;;;;;;12.57;7.35;;;-2.40;99.90;;;;;;5055422;28;20139;-92
2021/11/10 03:02:13;;;;;;;10.25;7.00;;;-2.30;99.90;;;;;;5057922;28;20473;-92
2021/11/10 03:04:45;;;;;;;15.68;7.28;;;-2.30;99.90;;;;;;5055221;28;20098;-92
2021/11/10 03:07:13;;;;;;;14.32;6.97;;;-2.40;99.90;;;;;;5055382;28;20072;-92
2021/11/10 03:09:43;;;;;;;10.65;6.78;;;-2.30;99.90;;;;;;5055947;28;20055;-93
2021/11/10 03:12:11;;;;;;;12.95;6.65;;;-2.30;99.90;;;;;;5058950;28;20396;-92
2021/11/10 03:14:39;;;;;;;20.65;7.00;;;-2.30;99.90;;;;;;5058930;28;20068;-92
2021/11/10 03:17:09;;;;;;;19.67;7.60;;;-2.30;99.90;;;;;;5058827;28;20507;-92
2021/11/10 03:19:37;;;;;;;28.00;7.50;;;-2.30;99.90;;;;;;5059081;28;20127;-92
2021/11/10 03:22:07;;;;;;;8.77;6.57;;;-2.30;99.90;;;;;;5058634;28;20052;-92
2021/11/10 03:24:34;;;;;;;13.07;6.68;;;-2.20;99.90;;;;;;5058906;28;20581;-92
2021/11/10 03:27:02;;;;;;;13.55;6.57;;;-2.20;99.90;;;;;;5058515;28;20549;-92
2021/11/10 03:29:29;;;;;;;13.90;6.05;;;-2.20;99.90;;;;;;5058659;28;20139;-92
2021/11/10 03:31:56;;;;;;;11.18;6.88;;;-2.30;99.90;;;;;;5058904;28;20136;-92
2021/11/10 03:34:23;;;;;;;13.65;6.82;;;-2.30;99.90;;;;;;5058519;28;20044;-92
2021/11/10 03:36:50;;;;;;;10.85;6.47;;;-2.30;99.90;;;;;;5058733;28;20058;-93
2021/11/10 03:39:17;;;;;;;9.52;5.97;;;-2.40;99.90;;;;;;5058561;28;20401;-92
2021/11/10 03:41:45;;;;;;;10.75;6.95;;;-2.40;99.90;;;;;;5058624;28;20068;-92
2021/11/10 03:44:12;;;;;;;12.65;7.20;;;-2.40;99.90;;;;;;5058760;28;20048;-92
2021/11/10 03:46:40;;;;;;;12.77;6.70;;;-2.50;99.90;;;;;;5058157;28;20511;-92
2021/11/10 03:49:07;;;;;;;10.93;7.00;;;-2.50;99.90;;;;;;5058202;28;20413;-92
2021/11/10 03:51:34;;;;;;;11.10;7.22;;;-2.40;99.90;;;;;;5058659;28;20147;-92
2021/11/10 03:54:01;;;;;;;8.45;6.05;;;-2.40;99.90;;;;;;5058360;28;20075;-92
2021/11/10 03:56:27;;;;;;;9.57;6.15;;;-2.40;99.90;;;;;;5058268;28;20474;-92
2021/11/10 03:58:54;;;;;;;8.48;6.45;;;-2.50;99.90;;;;;;5058584;28;20128;-92
2021/11/10 04:01:21;;;;;;;9.80;6.25;;;-2.50;99.90;;;;;;5058479;28;20048;-92
2021/11/10 04:03:48;;;;;;;7.93;6.13;;;-2.50;99.90;;;;;;5058404;28;20094;-92
2021/11/10 04:06:16;;;;;;;10.13;6.00;;;-2.50;99.90;;;;;;5058220;28;20086;-92
2021/11/10 04:08:43;;;;;;;9.88;5.75;;;-2.50;99.90;;;;;;5057955;28;20056;-92
2021/11/10 04:11:09;;;;;;;13.65;5.90;;;-2.50;99.90;;;;;;5058185;28;20064;-91
2021/11/10 04:13:36;;;;;;;8.73;6.32;;;-2.50;99.90;;;;;;5058128;28;20144;-92
2021/11/10 04:16:03;;;;;;;10.85;5.97;;;-2.50;99.90;;;;;;5057867;28;20140;-92
2021/11/10 04:18:35;;;;;;;12.00;6.28;;;-2.50;99.90;;;;;;5057873;28;20143;-92
2021/11/10 04:21:04;;;;;;;10.95;6.68;;;-2.50;99.90;;;;;;5057019;28;20560;-92
2021/11/10 04:23:32;;;;;;;10.48;6.55;;;-2.50;99.90;;;;;;5057529;28;20048;-92
2021/11/10 04:26:03;;;;;;;12.00;6.07;;;-2.40;99.90;;;;;;5057370;28;20215;-93
2021/11/10 04:28:30;;;;;;;15.68;6.53;;;-2.40;99.90;;;;;;5057581;28;20131;-92
2021/11/10 04:30:57;;;;;;;14.65;8.30;;;-2.60;99.90;;;;;;5057754;28;20408;-92
2021/11/10 04:33:27;;;;;;;14.82;7.43;;;-2.60;99.90;;;;;;5075093;28;20098;-92
2021/11/10 04:35:54;;;;;;;10.73;7.63;;;-2.50;99.90;;;;;;5074943;28;20048;-92
2021/11/10 04:38:21;;;;;;;9.32;5.82;;;-2.50;99.90;;;;;;5057532;28;20044;-93
2021/11/10 04:40:48;;;;;;;10.77;6.10;;;-2.50;99.90;;;;;;5074935;28;20048;-92
2021/11/10 04:43:16;;;;;;;8.38;6.20;;;-2.50;99.90;;;;;;5074793;28;20045;-93
2021/11/10 04:45:45;;;;;;;9.90;6.47;;;-2.70;99.90;;;;;;5057030;28;20507;-92
2021/11/10 04:48:11;;;;;;;10.30;6.40;;;-2.60;99.90;;;;;;5056952;28;20044;-93
2021/11/10 04:50:42;;;;;;;8.52;5.60;;;-2.70;99.90;;;;;;5056741;28;20155;-93
2021/11/10 04:53:09;;;;;;;9.38;6.15;;;-2.60;99.90;;;;;;5057342;28;20050;-92
2021/11/10 04:55:36;;;;;;;13.23;6.93;;;-2.70;99.90;;;;;;5057000;28;20132;-93
2021/11/10 04:58:03;;;;;;;11.57;6.72;;;-2.80;99.90;;;;;;5057071;28;20049;-93
2021/11/10 05:00:30;;;;;;;13.43;7.53;;;-2.70;99.90;;;;;;5056947;28;20048;-93
2021/11/10 05:02:57;;;;;;;13.70;5.90;;;-2.80;99.90;;;;;;5055606;28;20040;-93
2021/11/10 05:05:24;;;;;;;19.08;7.55;;;-2.70;99.90;;;;;;5074359;28;20558;-93
2021/11/10 05:07:51;;;;;;;14.43;7.13;;;-2.70;99.90;;;;;;5074204;28;20049;-93
2021/11/10 05:10:18;;;;;;;13.73;7.05;;;-2.80;99.90;;;;;;5056418;28;20068;-93
2021/11/10 05:12:45;;;;;;;8.95;6.05;;;-2.80;99.90;;;;;;5056606;28;20048;-93
2021/11/10 05:15:12;;;;;;;14.88;6.93;;;-2.70;99.90;;;;;;5056433;28;20418;-93
2021/11/10 05:17:39;;;;;;;13.70;6.35;;;-2.80;99.90;;;;;;5056456;28;20055;-93
2021/11/10 05:20:06;;;;;;;11.45;7.00;;;-2.80;99.90;;;;;;5056361;28;20115;-93
2021/11/10 05:22:38;;;;;;;19.73;6.75;;;-2.70;99.90;;;;;;5056514;28;20044;-93
2021/11/10 05:25:06;;;;;;;14.48;6.22;;;-2.70;99.90;;;;;;5056536;28;20074;-93
2021/11/10 05:27:33;;;;;;;8.52;6.50;;;-2.70;99.90;;;;;;5056407;28;20549;-93
2021/11/10 05:30:00;;;;;;;17.33;7.15;;;-2.70;99.90;;;;;;5053975;28;20053;-93
2021/11/10 05:32:27;;;;;;;14.85;7.90;;;-2.70;99.90;;;;;;5073776;28;20136;-92
2021/11/10 05:34:58;;;;;;;15.65;8.23;;;-2.70;99.90;;;;;;5055424;28;20123;-93
2021/11/10 05:37:27;;;;;;;13.20;8.30;;;-2.70;99.90;;;;;;5056250;28;20106;-93
2021/11/10 05:39:54;;;;;;;10.98;6.65;;;-2.70;99.90;;;;;;5056089;28;20051;-93
2021/11/10 05:42:20;;;;;;;11.35;6.07;;;-2.60;99.90;;;;;;5056120;28;20048;-93
2021/11/10 05:44:47;;;;;;;8.82;6.28;;;-2.60;99.90;;;;;;5056380;28;20476;-93
2021/11/10 05:47:14;;;;;;;11.57;6.63;;;-2.60;99.90;;;;;;5056465;28;20051;-93
2021/11/10 05:49:41;;;;;;;13.60;6.10;;;-2.60;99.90;;;;;;5056124;28;20420;-93
2021/11/10 05:52:08;;;;;;;16.60;6.65;;;-2.60;99.90;;;;;;5056045;28;20059;-92
2021/11/10 05:54:37;;;;;;;14.05;6.82;;;-2.60;99.90;;;;;;5055986;28;20055;-93
2021/11/10 05:57:05;;;;;;;7.65;6.10;;;-2.50;99.90;;;;;;5055908;28;20082;-93
2021/11/10 05:59:33;;;;;;;10.32;7.60;;;-2.50;99.90;;;;;;5056085;28;20048;-93
2021/11/10 06:02:01;;;;;;;9.90;6.68;;;-2.50;99.90;;;;;;5056008;28;20052;-92
2021/11/10 06:04:28;;;;;;;19.05;10.23;;;-2.50;99.90;;;;;;5055972;28;20132;-92
2021/11/10 06:06:55;;;;;;;19.10;10.07;;;-2.60;99.90;;;;;;5055916;28;20087;-93
2021/11/10 06:09:26;;;;;;;18.95;9.35;;;-2.70;99.90;;;;;;5056804;28;20090;-93
2021/11/10 06:11:52;;;;;;;18.08;9.10;;;-2.60;99.90;;;;;;5056129;28;20156;-92
2021/11/10 06:14:19;;;;;;;13.90;8.27;;;-2.60;99.90;;;;;;5055832;28;20135;-93
2021/11/10 06:16:46;;;;;;;12.63;7.00;;;-2.60;99.90;;;;;;5055626;28;20292;-93
2021/11/10 06:19:13;;;;;;;14.20;8.05;;;-2.60;99.90;;;;;;5055335;28;20051;-93
2021/11/10 06:21:39;;;;;;;10.43;7.55;;;-2.80;99.90;;;;;;5055814;28;20052;-93
2021/11/10 06:24:06;;;;;;;12.93;7.75;;;-2.80;99.90;;;;;;5055936;28;20064;-93
2021/11/10 06:26:33;;;;;;;13.43;7.72;;;-2.80;99.90;;;;;;5055748;28;20125;-93
2021/11/10 06:28:59;;;;;;;19.10;9.05;;;-2.70;99.90;;;;;;5055935;28;20140;-93
2021/11/10 06:31:26;;;;;;;16.02;7.97;;;-2.80;99.90;;;;;;5055770;28;20088;-93
2021/11/10 06:33:53;;;;;;;18.83;9.18;;;-2.70;99.90;;;;;;5056044;28;20051;-93
2021/11/10 06:36:20;;;;;;;13.23;8.15;;;-2.60;99.90;;;;;;5055626;28;20135;-93
2021/11/10 06:38:48;;;;;;;25.92;8.50;;;-2.50;99.90;;;;;;5055561;28;20132;-93
2021/11/10 06:41:18;;;;;;;15.50;9.80;;;-2.60;99.90;;;;;;5055737;28;20048;-93
2021/11/10 06:43:49;;;;;;;19.65;10.10;;;-2.50;99.90;;;;;;5055423;28;20061;-93
2021/11/10 06:46:17;;;;;;;15.63;9.57;;;-2.50;99.90;;;;;;5058896;28;20045;-93
2021/11/10 06:48:44;;;;;;;15.48;10.15;;;-2.40;99.90;;;;;;5059700;28;20049;-93
2021/11/10 06:51:14;;;;;;;15.75;8.93;;;-2.40;99.90;;;;;;5059375;28;20048;-93
2021/11/10 06:53:42;;;;;;;15.32;9.68;;;-2.40;99.90;;;;;;5059553;28;20068;-93
2021/11/10 06:56:10;;;;;;;20.50;10.88;;;-2.40;99.90;;;;;;5059401;28;20493;-93
2021/11/10 06:58:37;;;;;;;16.38;10.15;;;-2.40;99.90;;;;;;5059248;28;20171;-92
2021/11/10 07:01:05;;;;;;;15.52;10.30;;;-2.30;99.90;;;;;;5059463;28;20064;-93
2021/11/10 07:03:32;;;;;;;23.20;12.10;;;-2.20;99.90;;;;;;5059475;28;20060;-93
2021/11/10 07:05:58;;;;;;;21.55;12.20;;;-2.10;99.90;;;;;;5059229;28;20110;-93
2021/11/10 07:08:25;;;;;;;17.08;10.73;;;-2.00;99.90;;;;;;5059043;28;20136;-93
2021/11/10 07:10:52;;;;;;;18.25;11.32;;;-2.00;99.90;;;;;;5058840;28;20068;-93
2021/11/10 07:13:19;;;;;;;19.38;12.93;;;-1.90;99.90;;;;;;5059233;28;20049;-93
2021/11/10 07:15:46;;;;;;;22.27;12.63;;;-1.80;99.90;;;;;;5059378;28;20468;-93
2021/11/10 07:18:12;;;;;;;24.17;12.30;;;-1.70;99.90;;;;;;5059477;28;20127;-92
2021/11/10 07:20:39;;;;;;;19.00;10.95;;;-1.60;99.90;;;;;;5058951;28;21184;-93
2021/11/10 07:23:07;;;;;;;22.98;12.50;;;-1.50;99.90;;;;;;5059256;28;20131;-92
2021/11/10 07:25:34;;;;;;;16.15;10.32;;;-1.50;99.90;;;;;;5058919;28;20541;-92
2021/11/10 07:28:01;;;;;;;21.80;12.35;;;-1.40;99.90;;;;;;5059070;28;20130;-92
2021/11/10 07:30:28;;;;;;;17.63;12.02;;;-1.40;99.90;;;;;;5058731;28;20139;-92
2021/11/10 07:32:54;;;;;;;23.98;12.68;;;-1.30;99.90;;;;;;5058971;28;20044;-93
2021/11/10 07:35:21;;;;;;;25.23;14.00;;;-1.30;99.90;;;;;;5058696;28;20080;-92
2021/11/10 07:37:48;;;;;;;22.90;12.75;;;-1.20;99.90;;;;;;5058814;28;20056;-92
2021/11/10 07:40:17;;;;;;;26.30;16.48;;;-1.10;99.90;;;;;;5058471;28;20052;-92
2021/11/10 07:42:44;;;;;;;31.48;16.85;;;-1.20;99.90;;;;;;5058706;28;20135;-92
2021/11/10 07:45:54;;;;;;;29.83;14.18;;;-1.30;99.90;;;;;;5058532;28;20048;-92
2021/11/10 07:48:06;;;;;;;36.63;18.25;;;-1.20;99.90;;;;;;5068054;28;20493;-92
2021/11/10 07:50:34;;;;;;;36.90;17.75;;;-1.10;99.90;;;;;;5057992;28;20056;-92
2021/11/10 07:53:01;;;;;;;30.52;16.15;;;-1.00;99.90;;;;;;5058343;28;20136;-91
2021/11/10 07:55:28;;;;;;;35.10;18.25;;;-1.00;99.90;;;;;;5058553;28;20053;-92
2021/11/10 07:57:55;;;;;;;33.90;16.65;;;-0.90;99.90;;;;;;5057412;28;20040;-92
2021/11/10 08:00:39;;;;;;;28.70;16.08;;;-0.80;99.90;;;;;;5060264;28;20048;-92
2021/11/10 08:03:07;;;;;;;43.80;22.55;;;-0.70;99.90;;;;;;5058192;28;20048;-92
2021/11/10 08:05:34;;;;;;;36.42;18.02;;;-0.60;99.90;;;;;;5058333;28;20416;-91
2021/11/10 08:08:01;;;;;;;39.92;20.77;;;-0.50;99.90;;;;;;5058053;28;20163;-91
2021/11/10 08:10:48;;;;;;;40.65;21.38;;;-0.40;99.90;;;;;;5060800;28;20048;-91
2021/11/10 08:13:15;;;;;;;46.90;22.23;;;-0.30;99.90;;;;;;5057966;28;20560;-91
2021/11/10 08:15:42;;;;;;;26.92;16.65;;;-0.40;99.90;;;;;;5057887;28;20116;-91
2021/11/10 08:18:08;;;;;;;37.92;21.65;;;-0.40;99.90;;;;;;5057926;28;20083;-91
2021/11/10 08:20:35;;;;;;;42.58;21.77;;;-0.30;99.90;;;;;;5057670;28;20070;-91
2021/11/10 08:23:02;;;;;;;43.78;21.17;;;-0.10;99.90;;;;;;5058074;28;20524;-91
2021/11/10 08:25:29;;;;;;;47.25;22.02;;;0.10;99.90;;;;;;5057660;28;20132;-91
2021/11/10 08:27:56;;;;;;;25.88;14.43;;;0.30;99.90;;;;;;5057875;28;20052;-90
2021/11/10 08:30:23;;;;;;;35.50;20.00;;;0.40;99.90;;;;;;5057489;28;20167;-91
2021/11/10 08:32:51;;;;;;;35.72;18.45;;;0.50;99.90;;;;;;5057622;28;20499;-90
2021/11/10 08:35:19;;;;;;;22.65;12.90;;;0.40;99.90;;;;;;5057574;28;20051;-91
2021/11/10 08:37:49;;;;;;;22.17;12.23;;;0.60;99.90;;;;;;5057799;28;20570;-90
2021/11/10 08:40:16;;;;;;;25.92;11.48;;;0.70;99.90;;;;;;5057335;28;20536;-90
2021/11/10 08:42:43;;;;;;;20.00;9.88;;;0.90;99.90;;;;;;5057174;28;20455;-90
2021/11/10 08:45:13;;;;;;;22.38;10.43;;;1.00;99.90;;;;;;5057121;28;20062;-90
2021/11/10 08:47:45;;;;;;;20.30;11.10;;;1.00;99.90;;;;;;5057586;28;20143;-89
2021/11/10 08:50:15;;;;;;;25.70;11.32;;;1.10;99.90;;;;;;5057139;28;20055;-90
2021/11/10 08:52:44;;;;;;;19.20;12.05;;;1.20;99.90;;;;;;5050750;28;20139;-89
2021/11/10 08:55:13;;;;;;;34.03;13.73;;;1.40;99.90;;;;;;5037315;28;20076;-89
2021/11/10 08:57:40;;;;;;;25.65;15.55;;;1.70;99.90;;;;;;5037247;28;20486;-89
2021/11/10 09:00:10;;;;;;;28.95;18.75;;;2.10;99.90;;;;;;5037415;28;20405;-89
2021/11/10 09:02:37;;;;;;;24.88;15.05;;;2.50;99.90;;;;;;5037289;28;20115;-89
2021/11/10 09:05:05;;;;;;;24.23;13.80;;;2.70;99.90;;;;;;5037176;28;20145;-89
2021/11/10 09:07:33;;;;;;;32.80;14.73;;;2.80;99.90;;;;;;5044457;28;20135;-89
2021/11/10 09:10:00;;;;;;;23.10;12.88;;;2.90;99.90;;;;;;5042223;28;20102;-89
2021/11/10 09:12:27;;;;;;;53.60;22.77;;;3.10;99.90;;;;;;5036973;28;20141;-88
2021/11/10 09:14:53;;;;;;;292.65;110.35;;;3.80;99.90;;;;;;5036956;28;20129;-89
2021/11/10 09:17:20;;;;;;;88.95;50.38;;;4.60;99.90;;;;;;5036731;28;20512;-88
2021/11/10 09:19:47;;;;;;;75.20;58.80;;;5.60;99.90;;;;;;5036643;28;20044;-89
2021/11/10 09:22:14;;;;;;;33.05;21.20;;;5.30;99.90;;;;;;5036131;28;20115;-89
2021/11/10 09:24:41;;;;;;;23.65;8.68;;;6.10;99.90;;;;;;5036507;28;20045;-89
2021/11/10 09:27:08;;;;;;;17.17;5.80;;;6.10;99.90;;;;;;5036732;28;20084;-89
2021/11/10 09:29:36;;;;;;;14.68;5.72;;;6.90;99.90;;;;;;5036620;28;20067;-88
2021/11/10 09:32:04;;;;;;;22.95;5.45;;;8.10;99.90;;;;;;5040546;28;20072;-89
2021/11/10 09:34:33;;;;;;;13.38;5.80;;;8.90;99.90;;;;;;5047948;28;20053;-87
2021/11/10 09:36:59;;;;;;;15.77;5.40;;;9.40;99.90;;;;;;5051917;28;20139;-87
2021/11/10 09:39:26;;;;;;;19.30;5.78;;;10.40;99.90;;;;;;5057334;28;20060;-87
2021/11/10 09:41:54;;;;;;;20.55;5.30;;;11.00;99.90;;;;;;5056677;28;20075;-87
2021/11/10 09:44:23;;;;;;;23.48;6.10;;;11.40;99.90;;;;;;5056240;28;20478;-87
2021/11/10 09:46:51;;;;;;;26.65;6.15;;;10.70;99.90;;;;;;5055453;28;20052;-87
2021/11/10 09:49:18;;;;;;;36.95;6.85;;;10.00;99.90;;;;;;5055712;28;20493;-87
2021/11/10 09:51:47;;;;;;;20.42;5.63;;;9.80;99.90;;;;;;5055891;28;20052;-87
2021/11/10 09:54:15;;;;;;;26.02;5.50;;;9.20;99.90;;;;;;5055435;28;20060;-89
2021/11/10 09:56:45;;;;;;;24.80;5.75;;;8.80;99.90;;;;;;5055495;28;20075;-87
2021/11/10 09:59:16;;;;;;;52.88;7.95;;;8.50;99.90;;;;;;5056921;28;20131;-89
2021/11/10 10:01:42;;;;;;;29.63;7.18;;;7.90;99.90;;;;;;5055879;28;20420;-89
2021/11/10 10:04:12;;;;;;;13.55;5.13;;;7.50;99.90;;;;;;5055751;28;20113;-89
2021/11/10 10:06:40;;;;;;;17.63;5.25;;;7.20;99.90;;;;;;5055498;28;20065;-88
2021/11/10 10:09:07;;;;;;;18.15;5.65;;;6.70;99.90;;;;;;5055609;28;20404;-88
2021/11/10 10:11:34;;;;;;;27.17;5.72;;;6.30;99.90;;;;;;5055327;28;20134;-89
2021/11/10 10:14:01;;;;;;;18.05;5.28;;;6.40;99.90;;;;;;5055645;28;20063;-88
2021/11/10 10:16:34;;;;;;;9.13;4.43;;;6.60;99.90;;;;;;5055536;28;20414;-88
2021/11/10 10:19:09;;;;;;;9.25;4.60;;;6.50;99.90;;;;;;5054976;28;20053;-85
2021/11/10 10:21:42;;;;;;;9.95;4.07;;;6.80;99.90;;;;;;5055932;28;20114;-88
2021/11/10 10:24:15;;;;;;;8.70;3.55;;;7.30;99.90;;;;;;5055795;28;20135;-88
2021/11/10 10:26:42;;;;;;;10.00;3.93;;;7.40;99.90;;;;;;5073202;28;20055;-88
2021/11/10 10:29:12;;;;;;;14.85;4.90;;;7.60;99.90;;;;;;5055596;28;20378;-88
2021/11/10 10:31:42;;;;;;;14.93;5.03;;;7.70;99.90;;;;;;5056026;28;20136;-86
2021/11/10 10:34:18;;;;;;;10.73;4.30;;;7.70;99.90;;;;;;5055505;28;20048;-88
2021/11/10 10:36:46;;;;;;;18.95;4.47;;;8.10;99.90;;;;;;5072934;28;20182;-88
2021/11/10 10:39:19;;;;;;;15.55;4.70;;;8.60;99.90;;;;;;5055449;28;20047;-88
2021/11/10 10:41:51;;;;;;;13.98;4.60;;;10.20;99.90;;;;;;5054465;28;20092;-85
2021/11/10 10:44:22;;;;;;;28.27;5.88;;;11.20;99.90;;;;;;5055363;28;20052;-86
2021/11/10 10:46:58;;;;;;;39.58;6.45;;;12.00;99.90;;;;;;5055042;28;20094;-87
2021/11/10 10:49:32;;;;;;;20.85;4.80;;;12.50;99.90;;;;;;5072791;28;20040;-87
2021/11/10 10:52:19;;;;;;;19.35;4.40;;;13.70;99.90;;;;;;5054782;28;20049;-87
2021/11/10 10:54:49;;;;;;;15.57;3.80;;;13.30;99.90;;;;;;5072525;28;20496;-86
2021/11/10 10:57:20;;;;;;;12.10;4.15;;;13.10;99.70;;;;;;5055446;28;20051;-87
2021/11/10 11:00:06;;;;;;;15.10;4.20;;;12.80;99.30;;;;;;5055706;28;20136;-87
2021/11/10 11:02:33;;;;;;;21.80;4.18;;;12.70;99.90;;;;;;5055217;28;20045;-87
2021/11/10 11:05:00;;;;;;;35.63;4.38;;;13.10;99.90;;;;;;5055097;28;20083;-87
2021/11/10 11:07:30;;;;;;;14.20;4.22;;;13.80;99.60;;;;;;5055715;28;20056;-88
2021/11/10 11:09:57;;;;;;;22.27;4.80;;;14.30;99.90;;;;;;5055874;28;20123;-88
2021/11/10 11:12:33;;;;;;;19.45;4.20;;;14.70;97.70;;;;;;5054856;28;20058;-88
2021/11/10 11:15:24;;;;;;;15.98;4.18;;;15.20;94.40;;;;;;5054896;28;20132;-88
2021/11/10 11:17:55;;;;;;;26.55;4.72;;;15.10;94.30;;;;;;5072664;28;20132;-88
2021/11/10 11:20:30;;;;;;;26.85;5.03;;;16.00;93.20;;;;;;5055055;28;20485;-88
2021/11/10 11:22:58;;;;;;;15.90;4.28;;;17.50;90.60;;;;;;5072190;28;20060;-88
2021/11/10 11:25:27;;;;;;;21.17;3.95;;;18.60;85.40;;;;;;5054918;28;20047;-88
2021/11/10 11:27:56;;;;;;;15.82;4.00;;;19.10;78.90;;;;;;5054974;28;20406;-88
2021/11/10 11:30:33;;;;;;;16.05;4.05;;;19.20;78.00;;;;;;5055017;28;20434;-88
2021/11/10 11:33:03;;;;;;;14.52;3.20;;;18.60;78.10;;;;;;5057644;28;20098;-88
2021/11/10 11:35:36;;;;;;;9.52;2.70;;;19.20;78.30;;;;;;5057349;28;20489;-88
2021/11/10 11:38:09;;;;;;;11.82;3.58;;;19.00;75.50;;;;;;5058597;28;20080;-88
2021/11/10 11:40:37;;;;;;;21.60;3.53;;;18.30;76.20;;;;;;5058633;28;20048;-88
2021/11/10 11:43:06;;;;;;;18.77;3.65;;;16.90;80.30;;;;;;5076017;28;20294;-88
2021/11/10 11:45:36;;;;;;;16.60;3.67;;;17.10;82.30;;;;;;5058590;28;20127;-88
2021/11/10 11:48:04;;;;;;;11.98;3.10;;;17.90;81.80;;;;;;5058297;28;20048;-88
2021/11/10 11:50:32;;;;;;;11.40;2.85;;;18.00;80.50;;;;;;5058040;28;20410;-88
2021/11/10 11:52:59;;;;;;;10.65;3.05;;;18.70;79.30;;;;;;5057915;28;20080;-89
2021/11/10 11:55:43;;;;;;;9.82;3.30;;;18.90;76.10;;;;;;5057317;28;20048;-88
2021/11/10 11:58:16;;;;;;;;;;;19.00;76.60;;;;;;5058253;28;20045;-88
2021/11/10 12:00:44;;;;;;;5.70;2.40;;;18.80;77.50;;;;;;5057604;28;20007;-89
2021/11/10 12:03:20;;;;;;;2.00;1.80;;;18.70;77.70;;;;;;5057772;28;20045;-88
2021/11/10 12:05:49;;;;;;;8.25;2.08;;;18.10;78.00;;;;;;5057429;28;20091;-88
2021/11/10 12:08:44;;;;;;;8.07;2.38;;;18.20;79.80;;;;;;5057487;28;20047;-88
2021/11/10 12:11:20;;;;;;;4.82;2.40;;;18.30;78.00;;;;;;5057641;28;20048;-88
2021/11/10 12:13:59;;;;;;;6.05;2.10;;;18.30;80.40;;;;;;5057569;28;20123;-88
2021/11/10 12:16:26;;;;;;;4.57;2.20;;;18.60;80.80;;;;;;5057379;28;20580;-88
2021/11/10 12:18:59;;;;;;;11.23;2.33;;;19.40;76.60;;;;;;5074049;28;20048;-88
2021/11/10 12:21:33;;;;;;;8.18;1.92;;;19.60;75.30;;;;;;5075073;28;20134;-88
2021/11/10 12:24:05;;;;;;;7.28;1.90;;;20.00;73.40;;;;;;5074963;28;20071;-86
2021/11/10 12:26:33;;;;;;;4.55;2.28;;;19.70;71.80;;;;;;5057392;28;20083;-88
2021/11/10 12:29:02;;;;;;;11.98;2.35;;;19.20;72.70;;;;;;5074952;28;20048;-88
2021/11/10 12:31:37;;;;;;;8.02;2.22;;;18.70;75.00;;;;;;5057397;28;20155;-88
2021/11/10 12:34:27;;;;;;;2.35;2.00;;;18.20;76.00;;;;;;5057147;28;20044;-88
2021/11/10 12:36:59;;;;;;;4.80;2.15;;;17.60;75.70;;;;;;5057029;28;20049;-88
2021/11/10 12:39:38;;;;;;;12.95;2.70;;;16.70;82.10;;;;;;5057239;28;20507;-88
2021/11/10 12:42:07;;;;;;;14.13;2.90;;;16.50;82.70;;;;;;5056833;28;20063;-88
2021/11/10 12:44:47;;;;;;;3.58;1.70;;;16.30;82.70;;;;;;5056808;28;20166;-88